Time;durP1;ratioP1;P1;durP2;ratioP2;P2;SDS_P1;SDS_P2;PMS_P1;PMS_P2;Temp;Humidity;BMP_temperature;BMP_pressure;BME280_temperature;BME280_humidity;BME280_pressure;Samples;Min_cycle;Max_cycle;Signal;HPM_P1;HPM_P2
2021/09/11 00:00:24;;;;;;;7.65;6.20;;;18.60;93.50;;;;;;2057120;28;20075;-96
2021/09/11 00:01:44;;;;;;;7.97;6.10;;;18.60;93.50;;;;;;2044420;29;20036;-96
2021/09/11 00:03:03;;;;;;;6.97;5.75;;;18.50;93.40;;;;;;2054030;28;20501;-96
2021/09/11 00:04:23;;;;;;;7.65;5.72;;;18.60;93.50;;;;;;2047767;29;20039;-96
2021/09/11 00:05:42;;;;;;;6.88;6.00;;;18.50;93.50;;;;;;2053271;28;20046;-96
2021/09/11 00:07:02;;;;;;;7.68;6.28;;;18.50;93.50;;;;;;2056690;28;20035;-96
2021/09/11 00:08:21;;;;;;;6.90;5.45;;;18.50;93.50;;;;;;2051638;28;20047;-96
2021/09/11 00:09:40;;;;;;;7.55;6.75;;;18.50;93.50;;;;;;2043494;29;20043;-96
2021/09/11 00:11:00;;;;;;;8.10;6.47;;;18.50;93.50;;;;;;2043656;29;20051;-96
2021/09/11 00:12:19;;;;;;;7.53;6.13;;;18.50;93.50;;;;;;2056174;28;20242;-96
2021/09/11 00:13:38;;;;;;;7.85;6.45;;;18.50;93.50;;;;;;2039213;29;20043;-96
2021/09/11 00:14:58;;;;;;;8.15;6.60;;;18.40;93.50;;;;;;2043412;29;20035;-96
2021/09/11 00:16:17;;;;;;;8.73;6.80;;;18.50;93.50;;;;;;2055122;28;20042;-96
2021/09/11 00:17:38;;;;;;;8.93;6.63;;;18.50;93.50;;;;;;2063291;28;20046;-96
2021/09/11 00:18:58;;;;;;;7.75;6.47;;;18.50;93.50;;;;;;2060675;28;20043;-96
2021/09/11 00:20:17;;;;;;;8.02;6.55;;;18.40;93.50;;;;;;2055176;28;20476;-96
2021/09/11 00:21:38;;;;;;;8.57;6.82;;;18.40;93.50;;;;;;2053451;28;20079;-96
2021/09/11 00:22:59;;;;;;;8.00;6.72;;;18.40;93.50;;;;;;2038339;29;20047;-95
2021/09/11 00:24:19;;;;;;;8.63;7.10;;;18.40;93.50;;;;;;2045151;29;20070;-96
2021/09/11 00:25:38;;;;;;;8.05;6.80;;;18.40;93.50;;;;;;2052772;28;20035;-96
2021/09/11 00:26:57;;;;;;;7.97;7.03;;;18.40;93.50;;;;;;2057805;28;20035;-96
2021/09/11 00:28:17;;;;;;;8.85;7.10;;;18.40;93.50;;;;;;2073968;28;20050;-95
2021/09/11 00:29:37;;;;;;;9.32;7.03;;;18.40;93.50;;;;;;2054838;28;20011;-92
2021/09/11 00:30:56;;;;;;;8.27;7.00;;;18.50;93.50;;;;;;2069770;28;20048;-96
2021/09/11 00:32:16;;;;;;;8.55;7.07;;;18.40;93.40;;;;;;2051571;28;20067;-91
2021/09/11 00:33:35;;;;;;;8.98;7.60;;;18.40;93.70;;;;;;2056293;28;20023;-93
2021/09/11 00:34:55;;;;;;;7.90;6.82;;;18.40;93.50;;;;;;2056651;28;20058;-94
2021/09/11 00:36:14;;;;;;;8.52;6.82;;;18.40;93.50;;;;;;2065319;28;20023;-96
2021/09/11 00:37:33;;;;;;;7.60;6.53;;;18.40;93.50;;;;;;2058419;28;20020;-96
2021/09/11 00:38:52;;;;;;;8.60;7.03;;;18.40;93.50;;;;;;2061256;28;20100;-92
2021/09/11 00:40:15;;;;;;;8.90;7.07;;;18.40;93.50;;;;;;2051765;28;20024;-94
2021/09/11 00:41:35;;;;;;;9.55;7.53;;;18.40;93.50;;;;;;2054518;29;20032;-95
2021/09/11 00:42:54;;;;;;;8.35;7.35;;;18.40;93.40;;;;;;2056465;28;20035;-96
2021/09/11 00:44:13;;;;;;;9.77;7.45;;;18.40;93.40;;;;;;2057833;28;20034;-96
2021/09/11 00:45:32;;;;;;;8.68;7.18;;;18.40;93.40;;;;;;2055458;28;20040;-96
2021/09/11 00:46:52;;;;;;;8.85;7.32;;;18.40;93.40;;;;;;2055271;28;20043;-96
2021/09/11 00:48:11;;;;;;;8.85;7.35;;;18.40;93.40;;;;;;2052035;29;20047;-96
2021/09/11 00:49:31;;;;;;;8.55;7.20;;;18.40;93.40;;;;;;2048598;29;20035;-96
2021/09/11 00:50:50;;;;;;;8.13;6.80;;;18.40;93.40;;;;;;2060579;28;20039;-96
2021/09/11 00:52:10;;;;;;;9.32;7.38;;;18.40;93.40;;;;;;2056434;28;20461;-96
2021/09/11 00:53:30;;;;;;;8.88;6.88;;;18.40;93.40;;;;;;2055863;28;20404;-96
2021/09/11 00:54:50;;;;;;;8.63;7.13;;;18.40;93.40;;;;;;2055556;28;20043;-96
2021/09/11 00:56:09;;;;;;;8.60;6.63;;;18.30;93.30;;;;;;2048180;29;20055;-96
2021/09/11 00:57:30;;;;;;;9.57;7.28;;;18.30;93.40;;;;;;2048615;29;20035;-96
2021/09/11 00:58:49;;;;;;;7.65;6.70;;;18.30;93.40;;;;;;2050239;28;20093;-96
2021/09/11 01:00:09;;;;;;;7.40;6.60;;;18.30;93.40;;;;;;2066887;28;20039;-96
2021/09/11 01:01:29;;;;;;;7.78;6.53;;;18.30;93.40;;;;;;2065733;28;20556;-96
2021/09/11 01:02:48;;;;;;;8.73;6.80;;;18.30;93.40;;;;;;2053049;29;20047;-96
2021/09/11 01:04:09;;;;;;;8.35;7.03;;;18.30;93.30;;;;;;2049879;29;20035;-96
2021/09/11 01:05:28;;;;;;;8.02;6.22;;;18.30;93.30;;;;;;2054123;28;20517;-96
2021/09/11 01:06:48;;;;;;;8.40;6.53;;;18.30;93.30;;;;;;2056899;28;20047;-96
2021/09/11 01:08:07;;;;;;;8.65;6.50;;;18.30;93.30;;;;;;2054285;29;20059;-96
2021/09/11 01:09:28;;;;;;;8.68;6.45;;;18.30;93.30;;;;;;2061090;28;20034;-96
2021/09/11 01:10:48;;;;;;;7.82;6.38;;;18.30;93.30;;;;;;2053885;28;20039;-96
2021/09/11 01:12:08;;;;;;;8.63;6.95;;;18.30;93.30;;;;;;2057600;28;20046;-96
2021/09/11 01:13:28;;;;;;;7.72;6.38;;;18.30;93.30;;;;;;2060511;28;20400;-96
2021/09/11 01:14:47;;;;;;;8.23;6.55;;;18.30;93.60;;;;;;2054071;28;20034;-96
2021/09/11 01:16:07;;;;;;;7.60;6.07;;;18.30;93.30;;;;;;2053519;28;20043;-96
2021/09/11 01:17:27;;;;;;;9.65;7.30;;;18.30;93.30;;;;;;2067174;28;20039;-96
2021/09/11 01:18:46;;;;;;;9.45;6.43;;;18.30;93.30;;;;;;2052352;29;20501;-96
2021/09/11 01:20:06;;;;;;;8.07;6.13;;;18.30;93.60;;;;;;2047750;29;20048;-96
2021/09/11 01:21:27;;;;;;;7.95;6.70;;;18.30;93.30;;;;;;2055478;28;20038;-96
2021/09/11 01:22:46;;;;;;;8.18;5.95;;;18.20;93.30;;;;;;2051862;29;20482;-96
2021/09/11 01:24:06;;;;;;;8.68;6.50;;;18.20;93.30;;;;;;2055734;28;20038;-96
2021/09/11 01:25:26;;;;;;;7.30;6.05;;;18.20;93.30;;;;;;2050845;29;20047;-96
2021/09/11 01:26:51;;;;;;;6.90;5.93;;;18.20;93.30;;;;;;2047173;29;20071;-96
2021/09/11 01:28:10;;;;;;;7.65;5.88;;;18.10;93.30;;;;;;2066853;28;20046;-96
2021/09/11 01:29:30;;;;;;;8.32;6.10;;;18.10;93.30;;;;;;2061389;28;20078;-96
2021/09/11 01:30:49;;;;;;;8.15;6.30;;;18.10;93.30;;;;;;2040808;29;20099;-96
2021/09/11 01:32:14;;;;;;;8.32;6.28;;;18.10;93.40;;;;;;2044305;29;20039;-96
2021/09/11 01:33:35;;;;;;;8.30;6.07;;;18.10;93.30;;;;;;2059137;28;20046;-96
2021/09/11 01:34:54;;;;;;;;;;;18.10;93.40;;;;;;2060185;28;20082;-96
2021/09/11 01:36:13;;;;;;;6.38;5.18;;;18.00;93.30;;;;;;2062787;28;19891;-96
2021/09/11 01:37:47;;;;;;;7.43;5.50;;;18.00;93.30;;;;;;2072664;28;20043;-95
2021/09/11 01:39:06;;;;;;;7.95;5.45;;;18.00;93.30;;;;;;2076185;28;20026;-96
2021/09/11 01:40:26;;;;;;;9.65;5.57;;;17.90;93.30;;;;;;2060668;28;20043;-93
2021/09/11 01:41:53;;;;;;;7.68;5.60;;;17.90;93.30;;;;;;2062324;28;20039;-96
2021/09/11 01:43:14;;;;;;;8.63;5.75;;;18.00;93.30;;;;;;2059005;28;20079;-95
2021/09/11 01:44:33;;;;;;;8.20;5.50;;;17.90;93.30;;;;;;2057938;28;20027;-95
2021/09/11 01:45:52;;;;;;;8.55;6.13;;;17.90;93.30;;;;;;2055251;29;20040;-96
2021/09/11 01:47:14;;;;;;;7.72;5.50;;;17.90;93.30;;;;;;2052479;29;20047;-96
2021/09/11 01:48:34;;;;;;;8.90;6.40;;;17.90;93.30;;;;;;2060410;28;20039;-96
2021/09/11 01:49:53;;;;;;;7.18;5.63;;;17.80;93.30;;;;;;2070743;28;20125;-96
2021/09/11 01:51:13;;;;;;;8.80;6.57;;;17.80;93.30;;;;;;2060169;28;20031;-96
2021/09/11 01:52:32;;;;;;;7.50;5.75;;;17.80;93.60;;;;;;2053720;29;20039;-96
2021/09/11 01:53:52;;;;;;;7.07;5.53;;;17.80;93.30;;;;;;2049770;29;20047;-96
2021/09/11 01:55:13;;;;;;;7.15;5.43;;;17.80;93.30;;;;;;2049047;29;20036;-96
2021/09/11 01:56:33;;;;;;;8.35;5.75;;;17.80;93.30;;;;;;2062575;28;20416;-96
2021/09/11 01:57:52;;;;;;;7.53;5.68;;;17.80;93.30;;;;;;2054453;29;20047;-96
2021/09/11 01:59:11;;;;;;;7.13;5.43;;;17.80;93.30;;;;;;2056374;28;20042;-96
2021/09/11 02:00:31;;;;;;;7.97;5.38;;;17.70;93.30;;;;;;2054494;29;20094;-96
2021/09/11 02:01:51;;;;;;;8.15;5.70;;;17.80;93.30;;;;;;2058034;28;20043;-96
2021/09/11 02:03:10;;;;;;;7.13;5.32;;;17.80;93.30;;;;;;2060293;28;20047;-96
2021/09/11 02:04:30;;;;;;;8.85;5.80;;;17.70;93.30;;;;;;2062640;28;20047;-96
2021/09/11 02:05:49;;;;;;;7.88;5.20;;;17.70;93.30;;;;;;2066443;28;20043;-96
2021/09/11 02:07:09;;;;;;;7.22;5.07;;;17.70;93.30;;;;;;2067947;28;20066;-96
2021/09/11 02:08:28;;;;;;;8.88;5.85;;;17.70;93.30;;;;;;2055834;28;20040;-96
2021/09/11 02:09:47;;;;;;;7.47;5.53;;;17.60;93.30;;;;;;2065704;28;20069;-96
2021/09/11 02:11:07;;;;;;;8.35;5.57;;;17.70;93.30;;;;;;2064649;28;20051;-96
2021/09/11 02:12:26;;;;;;;7.72;5.55;;;17.60;93.30;;;;;;2070403;28;20034;-96
2021/09/11 02:14:02;;;;;;;7.63;5.68;;;17.60;93.30;;;;;;2069522;28;20067;-96
2021/09/11 02:15:22;;;;;;;7.85;5.75;;;17.60;93.30;;;;;;2064695;28;20035;-96
2021/09/11 02:16:42;;;;;;;7.32;5.43;;;17.60;93.30;;;;;;2069920;28;20516;-96
2021/09/11 02:18:02;;;;;;;8.02;6.03;;;17.60;93.30;;;;;;2064312;28;20106;-96
2021/09/11 02:19:24;;;;;;;7.93;5.75;;;17.60;93.30;;;;;;2049011;29;20043;-96
2021/09/11 02:20:43;;;;;;;8.10;6.00;;;17.50;93.20;;;;;;2058188;28;20421;-96
2021/09/11 02:22:06;;;;;;;7.53;5.80;;;17.50;93.20;;;;;;2047487;29;20036;-96
2021/09/11 02:23:26;;;;;;;8.23;5.95;;;17.50;93.20;;;;;;2060707;28;20031;-96
2021/09/11 02:24:47;;;;;;;8.95;5.82;;;17.50;93.20;;;;;;2053362;29;20032;-96
2021/09/11 02:26:26;;;;;;;;;;;17.40;93.20;;;;;;2053327;29;20027;-96
2021/09/11 02:28:07;;;;;;;9.23;4.85;;;17.40;93.20;;;;;;2074666;28;19910;-96
2021/09/11 02:29:27;;;;;;;6.90;5.07;;;17.40;93.20;;;;;;2065839;28;20066;-96
2021/09/11 02:30:52;;;;;;;7.13;5.28;;;17.40;93.20;;;;;;2053650;29;20039;-96
2021/09/11 02:32:35;;;;;;;8.60;5.63;;;17.40;93.20;;;;;;2056938;28;20035;-96
2021/09/11 02:33:55;;;;;;;8.70;5.35;;;17.30;93.20;;;;;;2049982;29;20597;-96
2021/09/11 02:37:52;;;;;;;7.22;5.28;;;17.30;93.20;;;;;;2034920;29;20037;-96
2021/09/11 02:39:13;;;;;;;9.85;4.75;;;17.30;93.20;;;;;;2026601;29;20057;-96
2021/09/11 02:40:34;;;;;;;7.32;4.95;;;17.30;93.20;;;;;;2021362;29;20041;-96
2021/09/11 02:41:56;;;;;;;7.03;5.18;;;17.30;93.20;;;;;;2018645;29;20041;-96
2021/09/11 02:43:32;;;;;;;9.50;5.55;;;17.20;93.20;;;;;;2012431;29;20038;-96
2021/09/11 02:44:53;;;;;;;7.68;5.15;;;17.20;93.20;;;;;;2018429;29;20049;-96
2021/09/11 02:46:24;;;;;;;7.78;4.80;;;17.20;93.20;;;;;;2028762;29;20552;-96
2021/09/11 02:49:46;;;;;;;7.63;5.40;;;17.20;93.20;;;;;;2057155;28;20051;-96
2021/09/11 02:51:05;;;;;;;;;;;17.20;93.20;;;;;;2058617;29;20035;-96
2021/09/11 02:52:26;;;;;;;6.85;4.65;;;17.10;93.10;;;;;;2050183;29;19911;-96
2021/09/11 02:53:49;;;;;;;6.95;4.32;;;17.10;93.20;;;;;;2047438;29;20035;-96
2021/09/11 02:55:32;;;;;;;7.90;5.03;;;17.20;93.20;;;;;;2058248;29;20095;-95
2021/09/11 02:57:06;;;;;;;6.60;4.53;;;17.20;93.20;;;;;;2043066;29;20047;-96
2021/09/11 02:58:44;;;;;;;7.15;4.80;;;17.10;93.20;;;;;;2041465;29;20037;-96
2021/09/11 03:00:15;;;;;;;8.27;4.78;;;17.10;93.20;;;;;;2042978;29;20036;-96
2021/09/11 03:02:29;;;;;;;6.97;4.63;;;17.10;93.10;;;;;;2019700;29;20045;-96
2021/09/11 03:03:50;;;;;;;6.53;4.50;;;17.10;93.10;;;;;;2035329;29;20068;-96
2021/09/11 03:05:37;;;;;;;6.78;4.72;;;17.10;93.10;;;;;;2035299;29;20045;-96
2021/09/11 03:07:03;;;;;;;6.05;4.50;;;17.10;93.10;;;;;;2013313;29;20030;-88
2021/09/11 03:08:31;;;;;;;8.90;5.05;;;17.10;93.10;;;;;;2026840;29;20041;-89
2021/09/11 03:12:32;;;;;;;7.35;5.05;;;17.10;93.10;;;;;;2020853;29;20105;-87
2021/09/11 03:14:02;;;;;;;6.30;4.25;;;17.00;93.10;;;;;;2020795;29;20038;-88
2021/09/11 03:17:46;;;;;;;6.35;4.43;;;17.00;93.10;;;;;;1997740;29;20023;-92
2021/09/11 03:19:19;;;;;;;6.88;4.57;;;17.00;93.10;;;;;;1990542;29;20027;-87
2021/09/11 03:21:03;;;;;;;7.20;4.50;;;16.90;93.10;;;;;;2004486;29;20031;-91
2021/09/11 03:22:58;;;;;;;7.28;4.65;;;17.00;93.10;;;;;;1997752;29;20035;-93
2021/09/11 03:24:21;;;;;;;7.10;4.53;;;16.90;93.00;;;;;;1997980;29;20023;-94
2021/09/11 03:25:41;;;;;;;6.97;4.97;;;16.90;93.00;;;;;;1989692;29;20031;-96
2021/09/11 03:27:05;;;;;;;7.23;4.90;;;16.90;93.00;;;;;;1974532;30;20048;-96
2021/09/11 03:30:47;;;;;;;7.10;5.07;;;16.90;93.00;;;;;;1996330;29;20067;-96
2021/09/11 03:32:20;;;;;;;7.55;5.10;;;16.90;93.10;;;;;;1995808;29;20098;-96
2021/09/11 03:34:22;;;;;;;7.32;4.90;;;16.80;93.10;;;;;;1995113;29;20550;-96
2021/09/11 03:36:09;;;;;;;7.15;4.90;;;16.80;93.10;;;;;;1995421;29;20066;-96
2021/09/11 03:37:37;;;;;;;8.00;5.22;;;16.80;93.30;;;;;;1990503;29;20031;-91
2021/09/11 03:38:58;;;;;;;7.90;5.30;;;16.80;93.10;;;;;;1996051;29;20027;-92
2021/09/11 03:40:19;;;;;;;;;;;16.80;93.00;;;;;;1990877;29;20051;-93
2021/09/11 03:41:39;;;;;;;7.68;5.20;;;16.80;93.00;;;;;;1995442;29;19917;-96
2021/09/11 03:43:38;;;;;;;7.35;5.07;;;16.80;93.00;;;;;;1990468;30;20035;-95
2021/09/11 03:45:06;;;;;;;8.05;5.35;;;16.80;93.30;;;;;;1982832;29;20024;-93
2021/09/11 03:46:41;;;;;;;7.65;5.00;;;16.80;93.00;;;;;;1975388;30;20033;-96
2021/09/11 03:48:01;;;;;;;7.30;5.10;;;16.80;93.00;;;;;;1973524;30;20024;-96
2021/09/11 03:49:22;;;;;;;7.63;5.40;;;16.80;93.00;;;;;;1990705;29;20051;-96
2021/09/11 03:51:12;;;;;;;8.55;5.53;;;16.70;93.00;;;;;;2011639;29;20445;-96
2021/09/11 03:52:39;;;;;;;8.23;5.28;;;16.70;93.00;;;;;;2019842;29;20037;-96
2021/09/11 03:53:58;;;;;;;8.60;5.95;;;16.70;93.10;;;;;;2004130;29;20457;-96
2021/09/11 03:56:39;;;;;;;10.00;6.40;;;16.70;93.00;;;;;;2136723;23;20057;-96
2021/09/11 03:57:58;;;;;;;8.70;6.43;;;16.70;93.30;;;;;;2074955;28;20043;-96
2021/09/11 03:59:18;;;;;;;8.65;6.22;;;16.70;93.10;;;;;;2072410;28;20026;-96
2021/09/11 04:00:38;;;;;;;8.13;6.03;;;16.70;93.10;;;;;;2072298;28;20042;-95
2021/09/11 04:01:58;;;;;;;7.85;5.70;;;16.70;93.10;;;;;;2072358;28;20038;-96
2021/09/11 04:04:04;;;;;;;8.07;6.10;;;16.80;93.10;;;;;;2072402;28;20018;-96
2021/09/11 04:12:01;;;;;;;7.65;5.38;;;16.70;93.00;;;;;;2084405;28;20026;-90
2021/09/11 04:56:58;;;;;;;7.82;6.00;;;16.80;92.80;;;;;;2128955;23;20054;-89
2021/09/11 04:58:18;;;;;;;8.45;6.22;;;16.80;92.80;;;;;;2052552;28;20529;-89
2021/09/11 04:59:37;;;;;;;9.80;6.53;;;16.80;92.80;;;;;;2050375;28;20043;-89
2021/09/11 05:00:56;;;;;;;8.05;6.30;;;16.80;92.80;;;;;;2054270;28;20039;-90
2021/09/11 05:02:15;;;;;;;8.70;6.28;;;16.80;92.90;;;;;;2055645;28;20050;-90
2021/09/11 05:03:35;;;;;;;8.63;6.55;;;16.80;93.00;;;;;;2055471;28;20051;-90
2021/09/11 05:04:54;;;;;;;9.95;6.90;;;16.80;92.90;;;;;;2056116;28;20062;-91
2021/09/11 05:06:13;;;;;;;8.43;6.38;;;16.80;92.90;;;;;;2043282;28;20035;-90
2021/09/11 05:07:33;;;;;;;8.20;6.30;;;16.80;93.10;;;;;;2052336;28;20043;-89
2021/09/11 05:08:52;;;;;;;9.30;6.10;;;16.90;92.90;;;;;;2050525;28;20050;-89
2021/09/11 05:10:12;;;;;;;7.88;5.88;;;16.80;92.90;;;;;;2043261;29;20314;-90
2021/09/11 05:11:31;;;;;;;8.75;6.22;;;16.90;92.90;;;;;;2046598;28;20516;-90
2021/09/11 05:12:51;;;;;;;11.05;6.55;;;16.90;92.90;;;;;;2049178;28;20146;-89
2021/09/11 05:14:10;;;;;;;8.15;6.15;;;16.90;92.90;;;;;;2063530;28;20073;-89
2021/09/11 05:15:29;;;;;;;8.52;6.43;;;16.80;93.10;;;;;;2068628;28;20026;-90
2021/09/11 05:16:49;;;;;;;8.25;6.38;;;16.90;92.90;;;;;;2036850;29;20198;-89
2021/09/11 05:18:08;;;;;;;9.32;6.55;;;16.90;92.90;;;;;;2054057;28;20043;-90
2021/09/11 05:19:27;;;;;;;8.68;6.70;;;16.90;92.90;;;;;;2042621;29;20052;-90
2021/09/11 05:20:46;;;;;;;10.98;7.57;;;16.90;92.90;;;;;;2038448;28;20046;-90
2021/09/11 05:22:06;;;;;;;9.73;6.63;;;16.90;92.80;;;;;;2062083;28;20046;-89
2021/09/11 05:23:25;;;;;;;10.73;7.60;;;16.80;92.80;;;;;;2056018;28;20042;-89
2021/09/11 05:24:44;;;;;;;8.00;6.25;;;16.80;92.80;;;;;;2046426;29;20051;-90
2021/09/11 05:26:04;;;;;;;8.65;6.63;;;16.80;92.80;;;;;;2042590;29;20074;-90
2021/09/11 05:27:24;;;;;;;8.27;6.45;;;16.90;92.80;;;;;;2060509;28;20086;-90
2021/09/11 05:28:43;;;;;;;7.47;5.78;;;16.90;92.90;;;;;;2049526;28;20027;-91
2021/09/11 05:30:04;;;;;;;9.70;6.13;;;16.90;92.90;;;;;;2048736;29;20051;-88
2021/09/11 05:31:23;;;;;;;8.15;5.85;;;16.90;92.80;;;;;;2059544;28;20113;-91
2021/09/11 05:32:42;;;;;;;7.90;5.78;;;16.90;92.80;;;;;;2052324;28;20028;-94
2021/09/11 05:34:05;;;;;;;7.95;5.88;;;16.90;92.80;;;;;;2039378;29;20511;-91
2021/09/11 05:35:24;;;;;;;8.93;6.10;;;17.00;92.90;;;;;;2046610;28;20047;-91
2021/09/11 05:36:43;;;;;;;9.57;6.28;;;16.90;92.80;;;;;;2046382;29;20035;-91
2021/09/11 05:38:02;;;;;;;8.63;6.60;;;17.00;92.80;;;;;;2050877;28;20034;-91
2021/09/11 05:39:22;;;;;;;8.95;6.53;;;16.90;92.80;;;;;;2045510;28;20538;-90
2021/09/11 05:40:41;;;;;;;10.63;6.07;;;17.00;92.80;;;;;;2039064;29;20032;-89
2021/09/11 05:42:00;;;;;;;9.30;6.38;;;16.90;92.80;;;;;;2051966;28;20049;-91
2021/09/11 05:43:20;;;;;;;8.05;5.70;;;16.90;92.80;;;;;;2046140;29;20051;-90
2021/09/11 05:44:40;;;;;;;7.55;6.03;;;16.90;92.80;;;;;;2057441;28;20039;-90
2021/09/11 05:45:59;;;;;;;8.82;6.10;;;17.00;92.80;;;;;;2037120;29;20039;-90
2021/09/11 05:47:18;;;;;;;7.28;5.30;;;16.90;92.80;;;;;;2058009;28;20035;-90
2021/09/11 05:48:38;;;;;;;9.15;5.47;;;17.00;92.80;;;;;;2038646;28;20536;-88
2021/09/11 05:49:59;;;;;;;7.82;5.55;;;17.00;92.80;;;;;;2052833;28;20039;-89
2021/09/11 05:51:18;;;;;;;;;;;17.00;92.80;;;;;;2050870;28;20402;-90
2021/09/11 05:52:37;;;;;;;6.85;4.93;;;17.00;92.70;;;;;;2050064;28;20368;-91
2021/09/11 05:53:57;;;;;;;7.32;5.38;;;17.00;92.70;;;;;;2055792;28;20035;-91
2021/09/11 05:55:16;;;;;;;7.18;5.15;;;17.00;92.70;;;;;;2046184;29;20114;-89
2021/09/11 05:56:35;;;;;;;8.25;5.45;;;17.00;92.70;;;;;;2039139;29;20036;-89
2021/09/11 05:57:54;;;;;;;7.40;5.50;;;17.00;92.60;;;;;;2057394;28;20047;-89
2021/09/11 05:59:14;;;;;;;7.18;5.25;;;17.10;92.70;;;;;;2062619;28;20039;-89
2021/09/11 06:00:33;;;;;;;7.88;5.50;;;17.10;92.70;;;;;;2049739;28;20118;-75
2021/09/11 06:01:54;;;;;;;6.88;5.03;;;17.10;92.70;;;;;;2058425;28;20062;-90
2021/09/11 06:03:13;;;;;;;7.70;5.20;;;17.10;92.70;;;;;;2057958;28;20067;-89
2021/09/11 06:04:33;;;;;;;7.70;5.18;;;17.10;92.60;;;;;;2038517;29;20052;-88
2021/09/11 06:05:52;;;;;;;6.55;4.82;;;17.10;92.60;;;;;;2048094;28;20042;-88
2021/09/11 06:07:12;;;;;;;9.20;5.85;;;17.10;92.60;;;;;;2049728;29;20421;-88
2021/09/11 06:08:31;;;;;;;7.75;5.53;;;17.10;92.60;;;;;;2059125;28;20046;-90
2021/09/11 06:09:50;;;;;;;7.25;5.10;;;17.20;92.60;;;;;;2057194;28;20051;-90
2021/09/11 06:11:10;;;;;;;7.18;5.00;;;17.20;92.60;;;;;;2062244;28;20097;-90
2021/09/11 06:12:29;;;;;;;9.43;5.57;;;17.20;92.60;;;;;;2053342;28;20031;-90
2021/09/11 06:13:48;;;;;;;8.38;5.25;;;17.20;92.60;;;;;;2054997;28;20042;-90
2021/09/11 06:15:08;;;;;;;7.00;5.15;;;17.20;92.60;;;;;;2046045;29;20039;-90
2021/09/11 06:16:27;;;;;;;7.10;5.32;;;17.10;92.60;;;;;;2036436;29;20118;-91
2021/09/11 06:17:46;;;;;;;10.23;5.82;;;17.10;92.60;;;;;;2036220;29;20068;-90
2021/09/11 06:19:05;;;;;;;7.72;5.22;;;17.20;92.60;;;;;;2044161;29;20043;-90
2021/09/11 06:20:25;;;;;;;7.50;5.60;;;17.20;92.60;;;;;;2046334;29;20141;-90
2021/09/11 06:21:44;;;;;;;7.15;5.22;;;17.20;92.60;;;;;;2057242;28;20496;-89
2021/09/11 06:23:03;;;;;;;8.05;4.93;;;17.10;92.50;;;;;;2049710;29;20035;-90
2021/09/11 06:24:23;;;;;;;7.28;5.07;;;17.10;92.80;;;;;;2035186;29;20044;-90
2021/09/11 06:25:42;;;;;;;7.78;4.90;;;17.10;92.60;;;;;;2035999;28;20039;-90
2021/09/11 06:27:01;;;;;;;6.32;4.88;;;17.10;92.60;;;;;;2051427;28;20517;-89
2021/09/11 06:28:23;;;;;;;7.35;5.18;;;17.10;92.60;;;;;;2051949;28;20535;-90
2021/09/11 06:29:43;;;;;;;6.78;4.82;;;17.10;92.60;;;;;;2052485;28;20035;-90
2021/09/11 06:31:02;;;;;;;7.70;4.80;;;17.10;92.60;;;;;;2044371;28;20043;-92
2021/09/11 06:32:21;;;;;;;6.25;4.55;;;17.10;92.60;;;;;;2047128;29;20063;-91
2021/09/11 06:33:41;;;;;;;7.20;4.85;;;17.10;92.60;;;;;;2034394;29;20032;-91
2021/09/11 06:35:00;;;;;;;6.70;4.88;;;17.10;92.60;;;;;;2032465;29;20040;-94
2021/09/11 06:36:19;;;;;;;7.28;4.82;;;17.10;92.60;;;;;;2044381;28;20063;-92
2021/09/11 06:37:39;;;;;;;5.90;4.32;;;17.10;92.50;;;;;;2043464;29;20047;-91
2021/09/11 06:38:58;;;;;;;6.60;4.50;;;17.10;92.50;;;;;;2050943;28;20113;-91
2021/09/11 06:40:17;;;;;;;5.97;4.63;;;17.20;92.50;;;;;;2054767;28;20114;-91
2021/09/11 06:41:37;;;;;;;6.78;4.55;;;17.20;92.50;;;;;;2045897;28;20035;-96
2021/09/11 06:42:56;;;;;;;7.00;4.40;;;17.20;92.50;;;;;;2047429;29;20039;-92
2021/09/11 06:44:15;;;;;;;7.15;5.00;;;17.20;92.60;;;;;;2055724;28;20047;-92
2021/09/11 06:45:35;;;;;;;5.78;4.30;;;17.20;92.50;;;;;;2045258;29;20051;-90
2021/09/11 06:46:54;;;;;;;6.97;4.75;;;17.20;92.50;;;;;;2046971;29;20039;-91
2021/09/11 06:48:13;;;;;;;6.05;4.75;;;17.30;92.50;;;;;;2042916;29;20039;-93
2021/09/11 06:49:33;;;;;;;5.80;4.03;;;17.30;92.50;;;;;;2044591;29;20063;-95
2021/09/11 06:50:52;;;;;;;6.00;4.15;;;17.30;92.50;;;;;;2036075;29;20036;-92
2021/09/11 06:52:13;;;;;;;5.45;4.00;;;17.30;92.50;;;;;;2049874;28;20050;-94
2021/09/11 06:53:32;;;;;;;6.00;4.45;;;17.40;92.40;;;;;;2062927;28;20042;-93
2021/09/11 06:54:51;;;;;;;9.48;5.20;;;17.40;92.40;;;;;;2067153;28;20074;-92
2021/09/11 06:56:11;;;;;;;6.78;4.97;;;17.40;92.40;;;;;;2051638;28;20040;-91
2021/09/11 06:57:30;;;;;;;6.80;5.20;;;17.40;92.40;;;;;;2039287;28;20051;-89
2021/09/11 06:58:49;;;;;;;6.53;4.70;;;17.40;92.30;;;;;;2056563;28;20050;-90
2021/09/11 07:00:09;;;;;;;6.95;4.90;;;17.40;92.30;;;;;;2046457;28;20518;-90
2021/09/11 07:01:28;;;;;;;6.43;4.53;;;17.40;92.30;;;;;;2046633;29;20466;-93
2021/09/11 07:02:48;;;;;;;6.60;4.70;;;17.40;92.30;;;;;;2054991;28;20039;-91
2021/09/11 07:04:07;;;;;;;6.72;4.68;;;17.40;92.30;;;;;;2046159;29;20071;-92
2021/09/11 07:05:26;;;;;;;6.03;4.50;;;17.40;92.30;;;;;;2043885;29;20031;-92
2021/09/11 07:06:45;;;;;;;6.32;4.78;;;17.40;92.30;;;;;;2054274;28;20035;-91
2021/09/11 07:08:05;;;;;;;6.20;4.68;;;17.40;92.30;;;;;;2037235;29;20122;-91
2021/09/11 07:09:24;;;;;;;6.18;4.50;;;17.40;92.30;;;;;;2042352;28;20035;-91
2021/09/11 07:10:43;;;;;;;6.93;4.78;;;17.40;92.30;;;;;;2049625;28;20035;-90
2021/09/11 07:12:03;;;;;;;6.55;4.50;;;17.50;92.30;;;;;;2042462;28;20043;-91
2021/09/11 07:13:22;;;;;;;7.15;4.70;;;17.50;92.30;;;;;;2045298;29;20514;-91
2021/09/11 07:14:41;;;;;;;6.93;4.78;;;17.50;92.30;;;;;;2062693;28;20046;-91
2021/09/11 07:16:00;;;;;;;6.80;4.55;;;17.50;92.30;;;;;;2070856;28;20511;-90
2021/09/11 07:17:20;;;;;;;7.03;4.88;;;17.50;92.20;;;;;;2057233;28;20071;-89
2021/09/11 07:18:39;;;;;;;5.63;3.95;;;17.50;92.20;;;;;;2052809;28;20035;-90
2021/09/11 07:19:58;;;;;;;5.93;4.03;;;17.60;92.30;;;;;;2046193;29;20039;-90
2021/09/11 07:21:17;;;;;;;5.97;4.35;;;17.60;92.20;;;;;;2058154;28;20046;-90
2021/09/11 07:22:37;;;;;;;7.30;4.43;;;17.60;92.20;;;;;;2048096;28;20040;-90
2021/09/11 07:23:56;;;;;;;6.78;4.85;;;17.60;92.40;;;;;;2048192;28;20039;-90
2021/09/11 07:25:15;;;;;;;6.88;4.22;;;17.70;92.20;;;;;;2062936;28;20497;-90
2021/09/11 07:26:35;;;;;;;7.03;4.60;;;17.70;92.10;;;;;;2057814;28;20039;-89
2021/09/11 07:27:54;;;;;;;5.97;4.15;;;17.70;92.10;;;;;;2043772;29;20430;-90
2021/09/11 07:29:14;;;;;;;6.43;4.50;;;17.70;92.10;;;;;;2052322;28;20046;-90
2021/09/11 07:30:35;;;;;;;6.60;3.97;;;17.80;92.10;;;;;;2051619;28;20445;-89
2021/09/11 07:31:55;;;;;;;6.55;4.22;;;17.80;92.00;;;;;;2054872;28;20054;-90
2021/09/11 07:33:14;;;;;;;6.38;4.72;;;17.90;91.90;;;;;;2058827;28;20472;-90
2021/09/11 07:34:33;;;;;;;6.90;4.68;;;17.90;91.90;;;;;;2062442;28;20050;-90
2021/09/11 07:35:53;;;;;;;7.40;4.97;;;18.00;91.80;;;;;;2053438;28;20094;-90
2021/09/11 07:37:12;;;;;;;6.93;4.72;;;18.00;91.80;;;;;;2043571;29;20082;-90
2021/09/11 07:38:31;;;;;;;6.80;4.68;;;18.00;91.80;;;;;;2047775;28;20115;-90
2021/09/11 07:39:50;;;;;;;6.65;4.47;;;18.00;91.80;;;;;;2057843;28;20424;-90
2021/09/11 07:41:10;;;;;;;6.55;4.25;;;18.00;91.70;;;;;;2065223;28;20046;-89
2021/09/11 07:42:29;;;;;;;6.55;4.72;;;18.10;91.80;;;;;;2062052;28;20042;-90
2021/09/11 07:43:49;;;;;;;8.77;5.38;;;18.10;91.70;;;;;;2062824;28;20038;-90
2021/09/11 07:45:12;;;;;;;7.22;5.32;;;18.10;91.70;;;;;;2057643;28;20043;-90
2021/09/11 07:46:32;;;;;;;6.82;4.88;;;18.20;91.60;;;;;;2062871;28;20091;-90
2021/09/11 07:47:51;;;;;;;7.93;5.05;;;18.20;91.60;;;;;;2051482;29;20044;-90
2021/09/11 07:49:10;;;;;;;8.05;5.97;;;18.30;91.60;;;;;;2043127;29;20043;-90
2021/09/11 07:50:30;;;;;;;8.85;5.97;;;18.30;91.50;;;;;;2052877;28;20039;-90
2021/09/11 07:51:50;;;;;;;;;;;18.20;91.50;;;;;;2047256;29;20054;-90
2021/09/11 07:53:09;;;;;;;7.10;5.15;;;18.20;91.50;;;;;;2045538;29;19989;-90
2021/09/11 07:54:28;;;;;;;9.25;6.00;;;18.20;91.50;;;;;;2037805;29;20510;-89
2021/09/11 07:55:47;;;;;;;6.53;4.80;;;18.20;91.50;;;;;;2040306;29;20043;-90
2021/09/11 07:57:07;;;;;;;7.88;5.05;;;18.20;91.50;;;;;;2059526;28;20055;-90
2021/09/11 07:58:26;;;;;;;7.38;5.32;;;18.20;91.50;;;;;;2051395;28;20043;-88
2021/09/11 07:59:45;;;;;;;6.80;5.13;;;18.30;91.50;;;;;;2060116;28;20035;-90
2021/09/11 08:01:04;;;;;;;7.20;5.45;;;18.30;91.50;;;;;;2062534;28;20132;-90
2021/09/11 08:02:24;;;;;;;8.00;5.53;;;18.30;91.80;;;;;;2048068;29;20042;-90
2021/09/11 08:03:43;;;;;;;7.15;5.07;;;18.30;91.50;;;;;;2049779;29;20043;-90
2021/09/11 08:05:03;;;;;;;7.07;5.32;;;18.30;91.50;;;;;;2051091;28;20063;-90
2021/09/11 08:06:22;;;;;;;7.65;4.93;;;18.40;91.50;;;;;;2050959;28;20039;-90
2021/09/11 08:07:42;;;;;;;7.95;5.53;;;18.40;91.40;;;;;;2042393;29;20039;-89
2021/09/11 08:09:02;;;;;;;6.15;5.18;;;18.40;91.40;;;;;;2057997;28;20047;-90